Time;durP1;ratioP1;P1;durP2;ratioP2;P2;SDS_P1;SDS_P2;PMS_P1;PMS_P2;Temp;Humidity;BMP_temperature;BMP_pressure;BME280_temperature;BME280_humidity;BME280_pressure;Samples;Min_cycle;Max_cycle;Signal;HPM_P1;HPM_P2
2022/01/01 00:01:47;;;;;;;208.82;104.70;;;;;;;6.39;92.53;95509.81;5051381;28;20210;-73
2022/01/01 00:04:14;;;;;;;198.10;102.00;;;;;;;6.49;91.40;95516.41;5052872;28;20213;-73
2022/01/01 00:06:40;;;;;;;177.70;94.20;;;;;;;6.62;90.68;95510.41;5052012;28;20328;-75
2022/01/01 00:09:07;;;;;;;190.85;99.22;;;;;;;6.70;90.85;95517.88;5054622;28;20205;-74
2022/01/01 00:11:34;;;;;;;204.45;102.60;;;;;;;6.67;90.21;95515.41;5055054;28;20256;-74
2022/01/01 00:14:02;;;;;;;206.65;104.00;;;;;;;6.47;90.85;95505.50;5053168;28;20697;-74
2022/01/01 00:16:29;;;;;;;188.00;100.97;;;;;;;6.37;90.93;95504.78;5054983;28;20642;-74
2022/01/01 00:18:55;;;;;;;201.80;100.22;;;;;;;6.32;90.93;95509.03;5053845;28;20664;-74
2022/01/01 00:21:22;;;;;;;207.10;110.10;;;;;;;6.32;91.18;95508.19;5054137;28;20202;-74
2022/01/01 00:23:49;;;;;;;207.80;106.38;;;;;;;5.91;91.76;95506.91;5054709;28;20206;-74
2022/01/01 00:26:16;;;;;;;208.40;108.15;;;;;;;6.18;91.56;95508.34;5055447;28;20234;-74
2022/01/01 00:28:44;;;;;;;196.38;101.65;;;;;;;6.35;90.13;95485.44;5053665;28;20284;-74
2022/01/01 00:31:12;;;;;;;200.32;103.03;;;;;;;6.23;90.58;95490.59;5053420;28;20243;-74
2022/01/01 00:33:39;;;;;;;199.20;105.97;;;;;;;6.24;90.73;95504.88;5053730;28;20279;-74
2022/01/01 00:36:06;;;;;;;210.55;109.43;;;;;;;6.18;89.92;95503.28;5053082;28;20199;-74
2022/01/01 00:38:33;;;;;;;215.10;110.05;;;;;;;6.00;90.91;95496.69;5054908;28;20268;-73
2022/01/01 00:40:59;;;;;;;213.35;106.65;;;;;;;5.88;90.35;95509.41;5054866;28;20203;-75
2022/01/01 00:43:26;;;;;;;226.48;108.47;;;;;;;6.02;91.36;95505.09;5052847;28;20218;-74
2022/01/01 00:45:53;;;;;;;206.30;109.70;;;;;;;5.99;90.08;95502.59;5053008;28;20230;-74
2022/01/01 00:48:21;;;;;;;198.30;105.65;;;;;;;5.93;90.31;95495.09;5056383;28;20269;-74
2022/01/01 00:50:48;;;;;;;205.70;104.57;;;;;;;5.71;90.74;95491.03;5056393;28;20207;-75
2022/01/01 00:53:14;;;;;;;210.00;104.22;;;;;;;5.63;91.32;95491.13;5056718;28;20244;-75
2022/01/01 00:55:41;;;;;;;203.02;103.15;;;;;;;5.62;91.12;95486.91;5058168;28;20259;-74
2022/01/01 00:58:08;;;;;;;223.43;112.10;;;;;;;5.54;92.14;95490.34;5057229;28;20203;-74
2022/01/01 01:00:35;;;;;;;261.92;131.73;;;;;;;5.58;91.82;95474.34;5056603;28;20670;-74
2022/01/01 01:03:08;;;;;;;232.25;116.47;;;;;;;5.57;92.03;95477.72;5057260;28;20199;-74
2022/01/01 01:05:38;;;;;;;267.02;139.38;;;;;;;5.30;92.84;95484.63;5055850;28;20578;-74
2022/01/01 01:08:05;;;;;;;261.85;133.73;;;;;;;5.63;92.94;95475.16;5058432;28;20688;-75
2022/01/01 01:10:32;;;;;;;217.00;112.60;;;;;;;5.74;90.97;95465.78;5057056;28;21202;-74
2022/01/01 01:12:59;;;;;;;205.95;104.40;;;;;;;5.71;91.63;95460.78;5057850;28;20599;-74
2022/01/01 01:15:26;;;;;;;208.90;109.68;;;;;;;5.72;90.99;95463.28;5056911;28;20586;-74
2022/01/01 01:17:55;;;;;;;208.05;107.07;;;;;;;5.72;90.45;95468.31;5056009;28;20202;-74
2022/01/01 01:20:22;;;;;;;216.45;114.22;;;;;;;5.72;91.50;95458.25;5057197;28;20202;-73
2022/01/01 01:22:50;;;;;;;231.13;110.65;;;;;;;5.44;92.95;95475.25;5057432;28;20239;-73
2022/01/01 01:25:17;;;;;;;210.20;107.50;;;;;;;5.35;93.46;95477.88;5056979;28;20805;-73
2022/01/01 01:27:44;;;;;;;201.93;106.07;;;;;;;5.34;93.71;95486.28;5057705;28;20230;-74
2022/01/01 01:30:15;;;;;;;219.57;108.28;;;;;;;5.46;93.05;95491.22;5055791;28;20208;-73
2022/01/01 01:32:42;;;;;;;206.50;107.60;;;;;;;5.59;91.84;95486.94;5057101;28;20210;-73
2022/01/01 01:35:11;;;;;;;215.38;109.38;;;;;;;5.42;91.34;95497.16;5056818;28;20272;-73
2022/01/01 01:37:38;;;;;;;187.25;94.95;;;;;;;5.65;90.62;95486.91;5056252;28;20296;-73
2022/01/01 01:40:08;;;;;;;206.35;103.25;;;;;;;5.32;91.60;95456.88;5056896;28;20251;-73
2022/01/01 01:42:35;;;;;;;190.90;101.80;;;;;;;5.70;90.05;95486.84;5057355;28;20636;-73
2022/01/01 01:45:04;;;;;;;177.80;91.50;;;;;;;5.78;90.25;95477.53;5054979;28;20199;-74
2022/01/01 01:47:34;;;;;;;148.57;74.18;;;;;;;5.77;89.21;95476.69;5054908;28;20587;-74
2022/01/01 01:50:02;;;;;;;142.18;77.30;;;;;;;5.70;89.78;95479.28;5054043;28;20199;-74
2022/01/01 01:52:33;;;;;;;148.80;75.40;;;;;;;5.53;90.64;95474.38;5054996;28;20359;-74
2022/01/01 01:55:01;;;;;;;114.47;54.17;;;;;;;5.56;91.23;95476.03;5054494;28;20264;-74
2022/01/01 01:57:30;;;;;;;142.38;62.80;;;;;;;5.39;92.79;95489.59;5053970;28;20936;-74
2022/01/01 01:59:57;;;;;;;142.15;68.43;;;;;;;5.19;92.59;95481.34;5053567;28;20199;-75
2022/01/01 02:02:24;;;;;;;118.90;61.15;;;;;;;5.09;93.84;95475.50;5056228;28;20206;-74
2022/01/01 02:04:51;;;;;;;117.25;54.50;;;;;;;4.97;94.32;95470.53;5055121;28;20248;-74
2022/01/01 02:07:19;;;;;;;121.50;60.35;;;;;;;5.07;94.47;95466.28;5057102;28;20613;-74
2022/01/01 02:09:47;;;;;;;105.00;55.05;;;;;;;5.03;95.57;95469.66;5054950;28;20207;-74
2022/01/01 02:12:13;;;;;;;106.38;52.45;;;;;;;5.15;94.82;95469.59;5055169;28;20235;-74
2022/01/01 02:15:06;;;;;;;106.43;53.05;;;;;;;5.10;95.50;95462.06;5057228;28;20205;-74
2022/01/01 02:17:32;;;;;;;106.10;53.63;;;;;;;5.07;95.25;95466.28;5055418;28;20297;-74
2022/01/01 02:20:10;;;;;;;124.00;58.72;;;;;;;5.01;95.79;95468.84;5055481;28;20206;-74
2022/01/01 02:22:40;;;;;;;114.50;54.05;;;;;;;4.94;95.71;95454.63;5055460;28;21439;-74
2022/01/01 02:25:07;;;;;;;114.60;53.55;;;;;;;4.96;95.98;95456.25;5056467;28;20347;-74
2022/01/01 02:27:36;;;;;;;112.15;56.30;;;;;;;4.96;95.88;95468.03;5056719;28;20323;-74
2022/01/01 02:30:06;;;;;;;112.80;55.95;;;;;;;5.18;95.15;95464.56;5055114;28;20661;-74
2022/01/01 02:32:32;;;;;;;96.90;51.17;;;;;;;5.14;95.12;95470.44;5054840;28;20285;-74
2022/01/01 02:34:59;;;;;;;122.38;57.17;;;;;;;5.36;94.58;95463.59;5055168;28;20227;-74
2022/01/01 02:37:27;;;;;;;132.07;60.97;;;;;;;5.26;93.70;95457.75;5054462;28;20661;-74
2022/01/01 02:39:54;;;;;;;120.25;60.80;;;;;;;5.16;94.12;95451.13;5056756;28;20206;-74
2022/01/01 02:42:22;;;;;;;132.05;66.72;;;;;;;5.06;94.73;95457.06;5054379;28;20198;-74
2022/01/01 02:44:50;;;;;;;141.52;71.60;;;;;;;4.87;94.95;95438.69;5056572;28;20283;-74
2022/01/01 02:47:17;;;;;;;137.77;66.65;;;;;;;5.01;94.84;95443.66;5054792;28;20701;-74
2022/01/01 02:49:44;;;;;;;174.40;82.63;;;;;;;5.24;94.08;95444.34;5055575;28;20211;-74
2022/01/01 02:52:11;;;;;;;154.65;73.57;;;;;;;5.15;93.36;95449.44;5054134;28;20227;-74
2022/01/01 02:54:39;;;;;;;143.20;70.47;;;;;;;5.23;93.05;95436.78;5055905;28;20672;-74
2022/01/01 02:57:06;;;;;;;142.50;71.13;;;;;;;5.20;93.21;95449.44;5056453;28;20207;-74
2022/01/01 02:59:33;;;;;;;157.98;76.05;;;;;;;5.01;92.98;95446.16;5054216;28;20203;-74
2022/01/01 03:01:59;;;;;;;139.48;69.18;;;;;;;4.93;93.85;95435.31;5055500;28;20198;-74
2022/01/01 03:04:26;;;;;;;155.23;75.07;;;;;;;4.95;94.10;95428.59;5054229;28;20206;-74
2022/01/01 03:06:55;;;;;;;145.85;71.70;;;;;;;4.84;94.31;95422.78;5055762;28;20249;-74
2022/01/01 03:09:24;;;;;;;154.10;70.50;;;;;;;5.14;92.77;95420.06;5055049;28;20202;-74
2022/01/01 03:11:53;;;;;;;137.70;68.15;;;;;;;5.36;91.87;95416.53;5054931;28;20285;-74
2022/01/01 03:14:19;;;;;;;129.57;64.20;;;;;;;5.41;91.30;95412.31;5020551;28;20218;-74
2022/01/01 03:16:47;;;;;;;130.93;64.55;;;;;;;5.30;91.71;95414.06;5019201;28;20269;-74
2022/01/01 03:19:14;;;;;;;135.00;66.38;;;;;;;5.42;90.98;95419.03;5020479;28;20257;-74
2022/01/01 03:21:41;;;;;;;123.73;61.27;;;;;;;5.26;91.21;95422.47;5019516;28;20211;-74
2022/01/01 03:24:09;;;;;;;136.30;65.80;;;;;;;5.02;91.79;95417.63;5020643;28;20555;-74
2022/01/01 03:26:35;;;;;;;138.85;65.88;;;;;;;5.12;92.43;95420.06;5021322;28;20360;-74
2022/01/01 03:29:04;;;;;;;129.70;61.40;;;;;;;5.25;92.17;95422.50;5018854;28;20211;-74
2022/01/01 03:31:30;;;;;;;106.43;58.75;;;;;;;5.35;92.14;95424.09;5020658;28;20200;-74
2022/01/01 03:33:58;;;;;;;119.25;56.72;;;;;;;5.21;91.61;95414.13;5019865;28;20284;-74
2022/01/01 03:36:25;;;;;;;123.68;64.03;;;;;;;5.05;92.22;95422.63;5019488;28;20207;-74
2022/01/01 03:38:52;;;;;;;146.55;66.68;;;;;;;5.09;92.68;95411.69;5019317;28;20697;-74
2022/01/01 03:41:18;;;;;;;114.40;59.00;;;;;;;5.35;91.56;95417.38;5020418;28;20222;-75
2022/01/01 03:43:45;;;;;;;109.03;58.47;;;;;;;5.50;90.49;95416.41;5020459;28;20196;-74
2022/01/01 03:46:13;;;;;;;93.45;48.22;;;;;;;5.48;90.72;95428.19;5018878;28;20202;-74
2022/01/01 03:48:40;;;;;;;111.90;55.08;;;;;;;5.58;91.22;95434.00;5020109;28;20239;-74
2022/01/01 03:51:07;;;;;;;106.43;52.17;;;;;;;5.41;91.58;95431.63;5019065;28;20200;-74
2022/01/01 03:53:34;;;;;;;68.25;38.70;;;;;;;5.55;91.62;95426.47;5017403;28;21267;-74
2022/01/01 03:56:00;;;;;;;76.32;42.10;;;;;;;5.41;90.56;95411.47;5019264;28;20666;-74
2022/01/01 03:58:27;;;;;;;74.95;40.65;;;;;;;5.10;91.93;95406.66;5016965;28;20253;-74
2022/01/01 04:00:55;;;;;;;74.32;39.63;;;;;;;4.92;93.19;95409.31;5017202;28;20273;-74
2022/01/01 04:03:23;;;;;;;86.38;42.20;;;;;;;4.84;94.21;95413.53;5018374;28;20196;-74
2022/01/01 04:05:50;;;;;;;77.10;38.88;;;;;;;4.83;94.77;95399.28;5018763;28;20258;-75
2022/01/01 04:08:17;;;;;;;78.70;40.88;;;;;;;4.83;95.60;95394.25;5018575;28;20231;-74
2022/01/01 04:10:43;;;;;;;68.95;35.90;;;;;;;4.90;95.34;95383.28;5019604;28;20277;-73
2022/01/01 04:13:11;;;;;;;72.82;36.33;;;;;;;4.87;95.53;95395.06;5027629;28;20801;-73
2022/01/01 04:15:39;;;;;;;67.78;33.97;;;;;;;4.92;94.89;95365.66;5033604;28;20567;-73
2022/01/01 04:18:10;;;;;;;65.13;31.15;;;;;;;5.20;94.25;95381.41;5035275;28;20670;-73
2022/01/01 04:20:38;;;;;;;53.53;29.30;;;;;;;5.26;93.36;95387.22;5032938;28;20666;-73
2022/01/01 04:23:09;;;;;;;65.72;35.28;;;;;;;5.46;92.64;95379.47;5036288;28;20551;-73
2022/01/01 04:25:36;;;;;;;44.17;23.10;;;;;;;5.35;93.28;95372.03;5037619;28;20589;-73
2022/01/01 04:28:03;;;;;;;65.28;32.65;;;;;;;4.91;94.95;95386.66;5038232;28;20235;-73
2022/01/01 04:30:29;;;;;;;56.33;30.20;;;;;;;5.08;94.95;95368.03;5037694;28;20208;-73
2022/01/01 04:32:56;;;;;;;52.08;28.23;;;;;;;5.10;94.60;95376.44;5038447;28;20210;-73
2022/01/01 04:35:23;;;;;;;53.25;28.52;;;;;;;4.95;95.50;95368.16;5039356;28;20206;-75
2022/01/01 04:37:52;;;;;;;50.30;27.50;;;;;;;5.16;95.97;95369.69;5036602;28;20203;-73
2022/01/01 04:40:19;;;;;;;64.25;31.25;;;;;;;5.17;94.30;95357.06;5038086;28;20208;-73
2022/01/01 04:42:45;;;;;;;65.57;32.33;;;;;;;5.14;94.08;95369.69;5037520;28;20686;-74
2022/01/01 04:45:12;;;;;;;58.92;28.85;;;;;;;5.09;94.49;95361.31;5038716;28;20199;-74
2022/01/01 04:47:39;;;;;;;62.35;32.80;;;;;;;5.17;94.04;95372.19;5037166;28;20233;-74
2022/01/01 04:50:07;;;;;;;55.58;30.70;;;;;;;5.19;94.22;95370.50;5038747;28;20254;-74
2022/01/01 04:52:34;;;;;;;62.58;32.38;;;;;;;4.87;94.59;95359.81;5037789;28;20735;-74
2022/01/01 04:55:02;;;;;;;50.88;29.48;;;;;;;5.15;94.57;95362.97;5038306;28;20277;-74
2022/01/01 04:57:30;;;;;;;51.58;28.75;;;;;;;5.29;93.92;95349.38;5037287;28;20269;-74
2022/01/01 04:59:58;;;;;;;41.17;21.60;;;;;;;5.51;93.51;95351.72;5038072;28;20285;-74
2022/01/01 05:02:26;;;;;;;43.35;23.77;;;;;;;5.67;92.41;95360.81;5037672;28;20346;-73
2022/01/01 05:04:53;;;;;;;49.40;26.63;;;;;;;5.60;92.17;95366.75;5036240;28;20199;-73
2022/01/01 05:07:19;;;;;;;56.85;29.60;;;;;;;5.63;91.70;95374.31;5036748;28;20219;-74
2022/01/01 05:09:46;;;;;;;60.90;29.98;;;;;;;5.75;91.54;95385.09;5037943;28;20256;-73
2022/01/01 05:12:14;;;;;;;43.28;24.17;;;;;;;5.58;92.24;95388.63;5040700;28;20328;-73
2022/01/01 05:14:41;;;;;;;39.42;22.48;;;;;;;5.64;92.21;95388.56;5057428;28;20255;-74
2022/01/01 05:17:08;;;;;;;36.67;20.95;;;;;;;5.66;92.59;95389.41;5057418;28;20633;-74
2022/01/01 05:19:34;;;;;;;38.08;20.48;;;;;;;5.64;92.02;95389.41;5056396;28;20198;-74
2022/01/01 05:22:01;;;;;;;35.25;20.20;;;;;;;5.63;92.02;95394.47;5055898;28;20199;-74
2022/01/01 05:24:28;;;;;;;32.10;19.75;;;;;;;5.44;92.30;95393.81;5056549;28;20730;-74
2022/01/01 05:26:55;;;;;;;39.70;19.90;;;;;;;5.46;92.84;95399.63;5054514;28;20202;-74
2022/01/01 05:29:23;;;;;;;32.45;19.02;;;;;;;5.62;92.64;95395.31;5055745;28;20279;-74
2022/01/01 05:31:49;;;;;;;42.35;21.90;;;;;;;5.48;92.41;95408.88;5055135;28;20614;-74
2022/01/01 05:34:16;;;;;;;36.90;21.52;;;;;;;5.23;93.87;95417.47;5055946;28;20210;-74
2022/01/01 05:36:43;;;;;;;46.10;25.20;;;;;;;5.02;94.98;95430.22;5055335;28;20723;-74
2022/01/01 05:39:10;;;;;;;52.03;24.30;;;;;;;5.06;96.00;95434.38;5057270;28;20252;-74
2022/01/01 05:41:37;;;;;;;47.30;25.17;;;;;;;4.94;96.06;95430.28;5056400;28;20234;-74
2022/01/01 05:44:04;;;;;;;42.38;23.23;;;;;;;4.70;97.62;95430.41;5058224;28;20198;-74
2022/01/01 05:46:32;;;;;;;45.10;20.52;;;;;;;5.15;96.55;95438.53;5055506;28;20191;-74
2022/01/01 05:48:59;;;;;;;34.72;19.92;;;;;;;5.23;95.25;95432.59;5057277;28;20234;-74
2022/01/01 05:51:26;;;;;;;50.30;25.42;;;;;;;4.97;96.21;95422.69;5055871;28;20256;-74
2022/01/01 05:53:52;;;;;;;49.08;25.85;;;;;;;5.04;96.75;95415.94;5058581;28;20202;-74
2022/01/01 05:56:19;;;;;;;45.30;26.23;;;;;;;5.04;96.18;95423.47;5056598;28;20198;-74
2022/01/01 05:58:46;;;;;;;52.85;28.42;;;;;;;5.20;95.79;95417.47;5054624;28;20329;-74
2022/01/01 06:01:13;;;;;;;61.55;30.80;;;;;;;5.30;95.31;95419.09;5055401;28;20231;-74
2022/01/01 06:03:41;;;;;;;60.13;31.83;;;;;;;5.02;94.74;95405.03;5056485;28;20210;-74
2022/01/01 06:06:08;;;;;;;62.97;34.50;;;;;;;5.02;95.65;95420.13;5056514;28;20260;-74
2022/01/01 06:08:34;;;;;;;75.15;38.78;;;;;;;5.20;96.08;95411.63;5055586;28;20351;-74
2022/01/01 06:11:02;;;;;;;95.03;45.42;;;;;;;5.30;94.91;95406.50;5056408;28;20624;-74
2022/01/01 06:13:29;;;;;;;75.65;39.05;;;;;;;5.51;93.81;95407.16;5055461;28;20320;-74
2022/01/01 06:15:55;;;;;;;80.53;42.20;;;;;;;5.66;93.27;95407.06;5056977;28;20555;-74
2022/01/01 06:18:22;;;;;;;94.47;43.72;;;;;;;5.86;92.52;95412.75;5054982;28;20198;-74
2022/01/01 06:20:50;;;;;;;83.72;41.80;;;;;;;5.91;91.61;95423.66;5055996;28;20194;-74
2022/01/01 06:23:17;;;;;;;85.05;43.83;;;;;;;5.98;90.93;95416.84;5056825;28;20203;-74
2022/01/01 06:25:44;;;;;;;81.95;43.88;;;;;;;6.03;90.98;95410.06;5054594;28;20707;-74
2022/01/01 06:28:11;;;;;;;101.18;46.33;;;;;;;6.11;90.85;95405.78;5054989;28;20279;-73
2022/01/01 06:30:38;;;;;;;93.68;42.97;;;;;;;6.02;91.61;95399.13;5056446;28;20206;-74
2022/01/01 06:33:11;;;;;;;83.57;42.58;;;;;;;6.05;91.33;95409.19;5056605;28;20202;-73
2022/01/01 06:35:39;;;;;;;79.13;40.58;;;;;;;6.29;90.61;95414.81;5056761;28;20297;-73
2022/01/01 06:38:07;;;;;;;74.72;37.88;;;;;;;6.30;90.46;95424.06;5054133;28;20260;-73
2022/01/01 06:40:34;;;;;;;59.88;33.65;;;;;;;6.27;90.58;95421.56;5055599;28;20743;-73
2022/01/01 06:43:01;;;;;;;65.75;34.42;;;;;;;5.95;91.28;95435.34;5054727;28;20198;-73
2022/01/01 06:45:28;;;;;;;56.92;30.35;;;;;;;5.97;92.12;95436.19;5055948;28;20726;-74
2022/01/01 06:47:54;;;;;;;38.42;22.77;;;;;;;6.21;92.14;95437.63;5054345;28;20916;-76
2022/01/01 06:50:21;;;;;;;39.25;22.80;;;;;;;6.10;92.46;95434.38;5054131;28;20261;-75
2022/01/01 06:52:48;;;;;;;37.13;19.90;;;;;;;6.16;92.15;95436.03;5055741;28;20252;-75
2022/01/01 06:55:16;;;;;;;26.77;17.30;;;;;;;6.12;92.40;95438.56;5053876;28;20892;-76
2022/01/01 06:57:43;;;;;;;24.88;16.00;;;;;;;6.08;93.65;95441.97;5054118;28;20202;-76
2022/01/01 07:00:12;;;;;;;24.40;13.80;;;;;;;6.05;92.45;95426.03;5055397;28;20228;-75
2022/01/01 07:02:40;;;;;;;21.20;13.30;;;;;;;5.99;92.92;95411.78;5055394;28;20259;-76
2022/01/01 07:05:08;;;;;;;22.00;13.95;;;;;;;6.42;92.27;95437.41;5054398;28;20683;-75
2022/01/01 07:07:34;;;;;;;21.10;13.27;;;;;;;7.46;89.48;95430.91;5055582;28;20259;-75
2022/01/01 07:10:01;;;;;;;18.50;12.50;;;;;;;9.38;78.90;95438.22;5051280;28;20203;-75
2022/01/01 07:12:29;;;;;;;16.88;12.05;;;;;;;10.04;74.71;95434.06;5054317;28;20963;-76
2022/01/01 07:14:56;;;;;;;15.05;10.25;;;;;;;10.31;73.29;95442.72;5052418;28;20210;-76
2022/01/01 07:17:23;;;;;;;16.73;9.45;;;;;;;10.21;73.48;95448.03;5052177;28;20198;-76
2022/01/01 07:19:50;;;;;;;16.42;11.38;;;;;;;9.53;75.70;95444.63;5052308;28;20202;-76
2022/01/01 07:22:16;;;;;;;15.85;10.55;;;;;;;9.99;75.50;95446.88;5053472;28;20280;-76
2022/01/01 07:24:44;;;;;;;12.07;9.40;;;;;;;11.03;71.26;95451.72;5055265;28;20236;-76
2022/01/01 07:27:11;;;;;;;14.88;9.82;;;;;;;11.94;67.56;95441.25;5054040;28;20209;-76
2022/01/01 07:29:39;;;;;;;17.30;9.63;;;;;;;13.43;63.07;95433.38;5054269;28;20300;-74
2022/01/01 07:32:07;;;;;;;15.90;10.13;;;;;;;14.63;59.54;95436.09;5056283;28;20780;-77
2022/01/01 07:34:33;;;;;;;13.07;9.63;;;;;;;16.00;55.49;95436.63;5054396;28;20291;-76
2022/01/01 07:37:00;;;;;;;11.60;8.80;;;;;;;15.83;54.95;95441.75;5054907;28;20310;-77
2022/01/01 07:39:27;;;;;;;13.95;10.18;;;;;;;15.08;56.49;95444.38;5052899;28;20248;-77
2022/01/01 07:41:54;;;;;;;13.30;10.63;;;;;;;14.49;59.16;95456.34;5056744;28;20614;-77
2022/01/01 07:44:20;;;;;;;16.63;11.38;;;;;;;14.49;59.84;95445.28;5054118;28;20202;-77
2022/01/01 07:46:50;;;;;;;16.95;12.20;;;;;;;14.49;59.84;95450.38;5053772;28;20222;-77
2022/01/01 07:49:17;;;;;;;19.13;13.18;;;;;;;14.84;59.78;95452.25;5053979;28;20284;-76
2022/01/01 07:51:44;;;;;;;15.85;11.02;;;;;;;15.73;57.18;95448.22;5055187;28;20742;-77
2022/01/01 07:54:11;;;;;;;14.93;10.80;;;;;;;17.44;53.13;95436.03;5054573;28;20669;-76
2022/01/01 07:56:37;;;;;;;17.80;11.13;;;;;;;18.82;48.79;95434.16;5053470;28;20742;-77
2022/01/01 07:59:04;;;;;;;13.23;10.20;;;;;;;19.15;48.06;95432.13;5053651;28;20264;-77
2022/01/01 08:01:31;;;;;;;17.60;10.43;;;;;;;17.79;51.16;95436.69;5054469;28;20259;-77
2022/01/01 08:04:02;;;;;;;11.18;9.90;;;;;;;16.62;54.24;95436.06;5055345;28;20301;-77
2022/01/01 08:06:30;;;;;;;14.55;11.13;;;;;;;16.43;55.96;95434.50;5054952;28;20294;-77
2022/01/01 08:08:56;;;;;;;14.40;10.38;;;;;;;17.43;54.27;95430.97;5053493;28;20230;-77
2022/01/01 08:11:24;;;;;;;9.60;8.65;;;;;;;18.60;50.83;95432.88;5055688;28;20673;-77
2022/01/01 08:13:51;;;;;;;10.20;7.55;;;;;;;17.87;52.23;95431.94;5054731;28;20230;-76
2022/01/01 08:16:17;;;;;;;8.40;7.57;;;;;;;16.03;57.23;95431.38;5055207;28;20569;-77
2022/01/01 08:18:44;;;;;;;6.18;5.25;;;;;;;14.77;61.33;95435.50;5054090;28;21008;-77
2022/01/01 08:21:12;;;;;;;4.20;3.80;;;;;;;13.18;66.86;95437.75;5053555;28;20251;-77
2022/01/01 08:23:39;;;;;;;3.35;2.95;;;;;;;12.78;68.84;95439.19;5055583;28;20211;-77
2022/01/01 08:26:06;;;;;;;3.80;3.10;;;;;;;12.19;71.82;95434.47;5056116;28;20205;-77
2022/01/01 08:28:32;;;;;;;2.17;2.08;;;;;;;12.01;73.44;95431.72;5052980;28;20233;-77
2022/01/01 08:30:59;;;;;;;2.63;2.42;;;;;;;12.09;73.42;95434.84;5053324;28;20256;-77
2022/01/01 08:33:26;;;;;;;3.63;2.08;;;;;;;12.30;72.25;95438.38;5054892;28;20713;-77
2022/01/01 08:35:53;;;;;;;4.38;2.85;;;;;;;12.81;70.90;95435.72;5053036;28;20257;-77
2022/01/01 08:38:21;;;;;;;2.35;1.98;;;;;;;13.79;67.58;95445.59;5053619;28;21178;-77
2022/01/01 08:40:47;;;;;;;1.92;1.83;;;;;;;15.65;61.66;95435.75;5054520;28;20292;-77
2022/01/01 08:43:14;;;;;;;3.72;1.98;;;;;;;17.33;56.00;95439.16;5053240;28;20199;-77
2022/01/01 08:45:41;;;;;;;1.67;1.58;;;;;;;18.79;51.47;95434.38;5055073;28;20210;-77
2022/01/01 08:48:09;;;;;;;1.80;1.70;;;;;;;17.54;53.54;95441.50;5053656;28;20217;-76
2022/01/01 08:50:35;;;;;;;2.13;1.95;;;;;;;16.67;55.86;95444.38;5053915;28;20627;-76
2022/01/01 08:53:02;;;;;;;1.92;1.83;;;;;;;16.53;56.41;95446.81;5051282;28;20300;-77
2022/01/01 08:55:31;;;;;;;2.03;1.65;;;;;;;16.69;56.07;95440.91;5053862;28;20205;-77
2022/01/01 08:57:58;;;;;;;1.92;1.58;;;;;;;16.61;56.13;95443.81;5052816;28;20264;-76
2022/01/01 09:00:25;;;;;;;2.15;1.95;;;;;;;16.02;57.60;95450.22;5048216;28;20222;-77
2022/01/01 09:02:52;;;;;;;3.17;2.10;;;;;;;14.78;61.67;95461.94;5050876;28;20688;-76
2022/01/01 09:05:18;;;;;;;4.18;1.60;;;;;;;14.33;63.33;95468.06;5053232;28;20206;-76
2022/01/01 09:07:45;;;;;;;2.30;2.15;;;;;;;14.10;63.90;95469.03;5053942;28;20358;-76
2022/01/01 09:10:12;;;;;;;3.85;3.50;;;;;;;14.60;62.90;95469.47;5055017;28;20233;-77
2022/01/01 09:12:40;;;;;;;2.28;2.08;;;;;;;15.10;61.45;95447.69;5057580;28;20797;-77
2022/01/01 09:15:07;;;;;;;2.35;2.15;;;;;;;16.26;58.68;95458.44;5056557;28;20693;-78
2022/01/01 09:17:34;;;;;;;2.50;2.30;;;;;;;16.84;56.33;95461.47;5055099;28;20480;-77
2022/01/01 09:20:02;;;;;;;2.50;2.30;;;;;;;17.04;55.70;95462.19;5055250;28;20639;-77
2022/01/01 09:22:29;;;;;;;2.53;2.33;;;;;;;17.26;54.73;95467.84;5055147;28;20202;-77
2022/01/01 09:24:56;;;;;;;3.70;3.28;;;;;;;16.87;55.78;95461.31;5054766;28;21670;-77
2022/01/01 09:27:23;;;;;;;8.05;7.25;;;;;;;17.20;55.80;95473.31;5055639;28;20661;-77
2022/01/01 09:29:51;;;;;;;3.40;3.10;;;;;;;16.70;56.33;95468.22;5055341;28;20218;-77
2022/01/01 09:32:20;;;;;;;3.20;2.97;;;;;;;16.49;57.55;95465.00;5055752;28;20256;-77
2022/01/01 09:34:47;;;;;;;2.60;2.40;;;;;;;16.14;58.69;95467.56;5057698;28;20576;-77
2022/01/01 09:37:13;;;;;;;3.65;3.35;;;;;;;15.53;60.46;95457.66;5056707;28;20257;-78
2022/01/01 09:39:40;;;;;;;3.20;2.90;;;;;;;15.66;60.42;95478.41;5057524;28;20923;-78
2022/01/01 09:42:11;;;;;;;4.22;3.72;;;;;;;15.30;61.37;95494.56;5056934;28;20705;-77
2022/01/01 09:44:39;;;;;;;3.40;3.20;;;;;;;14.64;63.53;95486.34;5058290;28;20198;-77
2022/01/01 09:47:09;;;;;;;2.63;2.42;;;;;;;14.26;65.31;95482.84;5057317;28;20249;-77
2022/01/01 09:49:36;;;;;;;4.05;2.70;;;;;;;14.06;65.44;95482.81;5057497;28;20720;-78
2022/01/01 09:52:03;;;;;;;4.18;3.15;;;;;;;13.84;66.74;95485.41;5057483;28;20755;-77
2022/01/01 09:54:31;;;;;;;4.65;3.10;;;;;;;13.42;67.22;95472.56;5055901;28;20280;-77
2022/01/01 09:56:58;;;;;;;3.13;2.83;;;;;;;13.29;68.54;95473.94;5057305;28;20206;-77
2022/01/01 09:59:25;;;;;;;2.28;2.05;;;;;;;13.13;68.86;95488.09;5056244;28;20710;-77
2022/01/01 10:01:52;;;;;;;4.32;2.42;;;;;;;12.82;69.66;95478.19;5056856;28;20204;-76
2022/01/01 10:04:20;;;;;;;2.85;2.65;;;;;;;12.83;70.52;95498.53;5056026;28;20268;-77
2022/01/01 10:07:02;;;;;;;5.28;4.00;;;;;;;12.63;71.29;95483.06;5055925;28;20252;-77
2022/01/01 10:09:33;;;;;;;3.83;3.53;;;;;;;12.49;72.37;95490.38;5057629;28;20356;-77
2022/01/01 10:11:59;;;;;;;3.45;3.15;;;;;;;12.53;72.93;95502.13;5055387;28;21330;-77
2022/01/01 10:14:35;;;;;;;4.18;3.22;;;;;;;12.56;73.97;95499.50;5056946;28;20213;-77
2022/01/01 10:17:09;;;;;;;3.95;3.55;;;;;;;12.49;73.07;95495.47;5056143;28;20292;-78
2022/01/01 10:19:39;;;;;;;3.53;3.22;;;;;;;12.67;72.89;95494.00;5055186;28;20207;-77
2022/01/01 10:22:11;;;;;;;5.45;4.30;;;;;;;12.93;72.49;95492.19;5055971;28;20259;-77
2022/01/01 10:30:05;;;;;;;3.38;3.08;;;;;;;12.91;70.13;95483.78;5056039;28;20241;-77
2022/01/01 10:32:32;;;;;;;3.53;3.22;;;;;;;12.81;70.61;95477.34;5054956;28;20195;-77
2022/01/01 10:35:02;;;;;;;4.00;3.63;;;;;;;12.81;70.52;95484.16;5055734;28;20210;-77
2022/01/01 10:37:31;;;;;;;4.20;3.40;;;;;;;12.82;69.99;95478.19;5055819;28;20214;-77
2022/01/01 10:39:58;;;;;;;3.70;3.40;;;;;;;12.87;70.38;95482.22;5054698;28;20639;-77
2022/01/01 10:42:26;;;;;;;4.25;3.85;;;;;;;12.98;69.04;95471.63;5054478;28;20205;-79
2022/01/01 10:44:56;;;;;;;4.35;3.95;;;;;;;12.81;70.07;95467.16;5054379;28;20206;-78
2022/01/01 10:47:30;;;;;;;4.60;4.20;;;;;;;12.82;69.38;95458.63;5057680;28;20202;-78
2022/01/01 10:50:14;;;;;;;5.28;3.58;;;;;;;12.82;67.81;95468.81;5054655;28;20233;-78
2022/01/01 10:52:45;;;;;;;3.58;3.22;;;;;;;12.99;67.15;95463.09;5054143;28;20202;-76
2022/01/01 10:55:13;;;;;;;3.05;2.70;;;;;;;12.95;66.75;95464.91;5055604;28;20683;-77
2022/01/01 10:57:42;;;;;;;3.78;2.95;;;;;;;13.01;66.81;95460.50;5056340;28;20230;-77
2022/01/01 11:00:15;;;;;;;3.22;2.90;;;;;;;13.07;66.34;95457.72;5054667;28;20206;-78
2022/01/01 11:02:43;;;;;;;4.32;3.95;;;;;;;13.17;65.91;95466.72;5055039;28;20202;-77
2022/01/01 11:05:11;;;;;;;3.97;3.53;;;;;;;13.18;66.10;95465.81;5054079;28;20706;-78
2022/01/01 11:07:50;;;;;;;3.53;3.22;;;;;;;13.21;65.52;95465.72;5055639;28;20214;-78
2022/01/01 11:10:17;;;;;;;3.65;3.42;;;;;;;13.29;65.30;95463.72;5056411;28;20229;-78
2022/01/01 11:12:45;;;;;;;3.35;3.05;;;;;;;13.45;65.05;95459.69;5054193;28;20230;-78
2022/01/01 11:15:12;;;;;;;4.32;3.63;;;;;;;13.64;64.19;95464.91;5054283;28;20220;-77
2022/01/01 11:17:41;;;;;;;3.80;3.50;;;;;;;13.65;64.45;95474.22;5056823;28;20248;-77
2022/01/01 11:20:08;;;;;;;5.90;4.10;;;;;;;13.57;64.09;95463.50;5055816;28;20320;-77
2022/01/01 11:22:35;;;;;;;4.15;3.85;;;;;;;13.39;64.48;95469.28;5055537;28;20481;-78
2022/01/01 11:25:04;;;;;;;3.72;3.42;;;;;;;13.25;66.67;95465.53;5054447;28;20213;-78
2022/01/01 11:27:32;;;;;;;7.03;4.38;;;;;;;12.97;65.90;95456.38;5055793;28;20738;-78
2022/01/01 11:30:00;;;;;;;4.15;3.75;;;;;;;12.64;67.51;95461.78;5054159;28;20230;-77
2022/01/01 11:32:41;;;;;;;4.88;4.05;;;;;;;12.53;68.86;95466.44;5054199;28;20207;-78